createdAt,value
2017-09-06T00:00:17.636Z,88.03
2017-09-06T00:02:45.951Z,87.65
2017-09-06T00:05:14.310Z,87.81
2017-09-06T00:07:42.644Z,87.97
2017-09-06T00:10:12.875Z,87.81
2017-09-06T00:12:41.666Z,87.97
2017-09-06T00:15:10.883Z,88.00
2017-09-06T00:17:40.154Z,87.61
2017-09-06T00:20:08.483Z,87.61
2017-09-06T00:22:36.822Z,87.59
2017-09-06T00:25:05.157Z,87.48
2017-09-06T00:27:33.498Z,87.67
2017-09-06T00:30:02.267Z,87.79
2017-09-06T00:32:30.660Z,88.14
2017-09-06T00:34:58.994Z,88.01
2017-09-06T00:37:27.342Z,88.04
2017-09-06T00:39:55.672Z,88.51
2017-09-06T00:42:24.012Z,88.08
2017-09-06T00:44:52.366Z,88.24
2017-09-06T00:47:20.718Z,88.53
2017-09-06T00:49:49.054Z,87.91
2017-09-06T00:52:17.424Z,88.14
2017-09-06T00:54:45.779Z,87.89
2017-09-06T00:57:14.105Z,87.71
2017-09-06T00:59:42.468Z,87.46
2017-09-06T01:02:10.811Z,87.21
2017-09-06T01:04:39.147Z,87.89
2017-09-06T01:07:07.461Z,88.11
2017-09-06T01:09:36.703Z,88.28
2017-09-06T01:12:05.036Z,88.11
2017-09-06T01:14:33.386Z,88.45
2017-09-06T01:17:01.731Z,87.70
2017-09-06T01:19:30.065Z,87.73
2017-09-06T01:21:58.501Z,87.70
2017-09-06T01:24:26.858Z,87.60
2017-09-06T01:26:55.202Z,88.29
2017-09-06T01:29:24.357Z,87.97
2017-09-06T01:31:52.710Z,88.03
2017-09-06T01:34:21.060Z,87.96
2017-09-06T01:36:49.400Z,88.34
2017-09-06T01:39:17.773Z,87.79
2017-09-06T01:41:46.098Z,87.89
2017-09-06T01:44:14.426Z,87.87
2017-09-06T01:46:42.760Z,87.96
2017-09-06T01:49:11.076Z,88.08
2017-09-06T01:51:39.407Z,87.94
2017-09-06T01:54:07.742Z,87.64
2017-09-06T01:56:36.139Z,87.58
2017-09-06T01:59:04.468Z,87.39
2017-09-06T02:01:32.795Z,87.71
2017-09-06T02:04:02.147Z,87.53
2017-09-06T02:06:30.479Z,87.48
2017-09-06T02:08:59.301Z,87.60
2017-09-06T02:11:27.628Z,87.31
2017-09-06T02:13:55.969Z,87.42
2017-09-06T02:16:24.298Z,87.24
2017-09-06T02:18:52.630Z,87.23
2017-09-06T02:21:22.772Z,87.39
2017-09-06T02:23:51.099Z,87.33
2017-09-06T02:26:19.492Z,87.35
2017-09-06T02:28:47.842Z,87.46
2017-09-06T02:31:16.182Z,87.27
2017-09-06T02:33:44.528Z,87.37
2017-09-06T02:36:12.846Z,87.02
2017-09-06T02:38:41.298Z,87.14
2017-09-06T02:41:09.704Z,87.33
2017-09-06T02:43:38.157Z,87.37
2017-09-06T02:46:06.491Z,87.64
2017-09-06T02:48:34.832Z,87.50
2017-09-06T02:51:03.180Z,87.37
2017-09-06T02:53:31.514Z,87.68
2017-09-06T02:56:02.200Z,87.80
2017-09-06T02:58:30.539Z,87.90
2017-09-06T03:00:58.854Z,87.62
2017-09-06T03:03:27.197Z,87.35
2017-09-06T03:05:56.419Z,88.01
2017-09-06T03:08:24.851Z,87.80
2017-09-06T03:10:53.184Z,87.87
2017-09-06T03:13:22.091Z,87.23
2017-09-06T03:15:50.406Z,87.30
2017-09-06T03:18:18.739Z,86.90
2017-09-06T03:20:47.080Z,87.55
2017-09-06T03:23:15.445Z,87.84
2017-09-06T03:25:44.873Z,87.46
2017-09-06T03:28:13.187Z,87.30
2017-09-06T03:30:41.634Z,87.53
2017-09-06T03:33:10.776Z,87.40
2017-09-06T03:35:39.112Z,87.34
2017-09-06T03:38:07.461Z,87.58
2017-09-06T03:40:35.804Z,87.56
2017-09-06T03:43:04.157Z,87.29
2017-09-06T03:45:32.488Z,87.49
2017-09-06T03:48:00.841Z,87.80
2017-09-06T03:50:29.168Z,88.21
2017-09-06T03:52:58.405Z,88.09
2017-09-06T03:55:26.751Z,88.22
2017-09-06T03:57:55.069Z,88.69
2017-09-06T04:00:23.419Z,88.63
2017-09-06T04:02:52.336Z,88.91
2017-09-06T04:05:25.156Z,88.84
2017-09-06T04:07:53.471Z,88.65
2017-09-06T04:10:21.801Z,88.43
2017-09-06T04:12:50.923Z,88.60
2017-09-06T04:15:19.237Z,88.60
2017-09-06T04:17:47.588Z,88.44
2017-09-06T04:20:15.913Z,88.19
2017-09-06T04:22:44.537Z,88.36
2017-09-06T04:25:12.868Z,88.00
2017-09-06T04:27:41.691Z,87.92
2017-09-06T04:30:10.042Z,88.01
2017-09-06T04:32:38.371Z,87.90
2017-09-06T04:35:06.737Z,87.72
2017-09-06T04:37:35.058Z,87.81
2017-09-06T04:40:03.684Z,87.84
2017-09-06T04:42:32.016Z,88.01
2017-09-06T04:45:00.344Z,87.92
2017-09-06T04:47:28.685Z,87.78
2017-09-06T04:49:57.000Z,87.58
2017-09-06T04:52:25.345Z,87.82
2017-09-06T04:54:53.685Z,88.15
2017-09-06T04:57:22.363Z,88.15
2017-09-06T04:59:50.708Z,87.95
2017-09-06T05:02:19.053Z,87.91
2017-09-06T05:04:47.410Z,88.01
2017-09-06T05:07:15.734Z,88.26
2017-09-06T05:09:44.091Z,88.08
2017-09-06T05:12:12.417Z,87.91
2017-09-06T05:14:40.776Z,87.58
2017-09-06T05:17:09.134Z,87.50
2017-09-06T05:19:37.447Z,87.11
2017-09-06T05:22:05.803Z,86.85
2017-09-06T05:24:34.135Z,86.74
2017-09-06T05:27:03.279Z,86.34
2017-09-06T05:29:31.626Z,86.48
2017-09-06T05:31:59.947Z,86.00
2017-09-06T05:34:28.298Z,86.12
2017-09-06T05:36:56.814Z,85.68
2017-09-06T05:39:25.158Z,85.40
2017-09-06T05:41:53.474Z,85.27
2017-09-06T05:44:22.485Z,85.55
2017-09-06T05:46:51.536Z,85.47
2017-09-06T05:49:19.877Z,85.67
2017-09-06T05:51:48.213Z,85.99
2017-09-06T05:54:16.551Z,86.02
2017-09-06T05:56:44.890Z,86.69
2017-09-06T05:59:13.208Z,86.76
2017-09-06T06:01:41.567Z,87.08
2017-09-06T06:04:09.897Z,87.01
2017-09-06T06:06:38.233Z,87.43
2017-09-06T06:09:06.585Z,87.10
2017-09-06T06:11:34.911Z,87.52
2017-09-06T06:14:03.260Z,87.71
2017-09-06T06:16:31.584Z,87.29
2017-09-06T06:18:59.957Z,86.17
2017-09-06T06:21:28.307Z,85.75
2017-09-06T06:23:56.629Z,85.32
2017-09-06T06:26:24.987Z,85.58
2017-09-06T06:28:53.326Z,84.65
2017-09-06T06:31:22.025Z,83.64
2017-09-06T06:33:50.353Z,82.55
2017-09-06T06:36:18.682Z,82.04
2017-09-06T06:38:47.042Z,81.45
2017-09-06T06:41:15.355Z,82.19
2017-09-06T06:43:43.777Z,82.32
2017-09-06T06:46:12.166Z,82.10
2017-09-06T06:48:40.518Z,81.97
2017-09-06T06:51:08.850Z,81.51
2017-09-06T06:53:38.163Z,82.30
2017-09-06T06:56:06.509Z,81.81
2017-09-06T06:58:34.837Z,82.10
2017-09-06T07:01:03.171Z,83.30
2017-09-06T07:03:31.500Z,84.75
2017-09-06T07:06:00.147Z,84.76
2017-09-06T07:08:28.482Z,85.42
2017-09-06T07:10:56.804Z,84.96
2017-09-06T07:13:25.156Z,85.05
2017-09-06T07:15:53.486Z,84.71
2017-09-06T07:18:21.856Z,84.57
2017-09-06T07:20:50.186Z,85.25
2017-09-06T07:23:18.552Z,84.93
2017-09-06T07:25:46.878Z,85.28
2017-09-06T07:28:15.224Z,85.43
2017-09-06T07:30:43.566Z,85.90
2017-09-06T07:33:11.895Z,85.89
2017-09-06T07:35:40.241Z,85.50
2017-09-06T07:38:08.586Z,85.72
2017-09-06T07:40:36.947Z,85.94
2017-09-06T07:43:05.289Z,86.73
2017-09-06T07:45:33.631Z,86.71
2017-09-06T07:48:01.985Z,86.75
2017-09-06T07:50:30.368Z,85.99
2017-09-06T07:52:59.279Z,86.76
2017-09-06T07:55:27.628Z,85.64
2017-09-06T07:57:55.976Z,85.72
2017-09-06T08:00:24.321Z,84.05
2017-09-06T08:02:52.653Z,83.91
2017-09-06T08:05:21.008Z,82.96
2017-09-06T08:07:54.735Z,82.02
2017-09-06T08:10:23.069Z,82.38
2017-09-06T08:12:51.406Z,82.83
2017-09-06T08:15:19.778Z,81.09
2017-09-06T08:17:48.136Z,80.91
2017-09-06T08:20:16.467Z,80.12
2017-09-06T08:22:45.031Z,80.35
2017-09-06T08:25:13.365Z,79.92
2017-09-06T08:27:41.713Z,77.73
2017-09-06T08:30:10.040Z,76.98
2017-09-06T08:32:38.403Z,77.31
2017-09-06T08:35:06.849Z,77.53
2017-09-06T08:37:35.171Z,78.28
2017-09-06T08:40:03.505Z,78.09
2017-09-06T08:42:31.819Z,76.86
2017-09-06T08:45:00.147Z,75.77
2017-09-06T08:47:28.459Z,76.57
2017-09-06T08:49:57.117Z,74.40
2017-09-06T08:52:25.437Z,73.41
2017-09-06T08:54:53.762Z,74.45
2017-09-06T08:57:22.109Z,75.85
2017-09-06T08:59:50.433Z,75.27
2017-09-06T09:02:18.781Z,72.97
2017-09-06T09:04:47.117Z,73.70
2017-09-06T09:07:17.015Z,72.54
2017-09-06T09:09:45.365Z,74.00
2017-09-06T09:12:13.693Z,73.59
2017-09-06T09:14:42.060Z,73.12
2017-09-06T09:17:11.106Z,72.73
2017-09-06T09:19:39.439Z,72.74
2017-09-06T09:22:07.777Z,71.57
2017-09-06T09:24:36.119Z,72.90
2017-09-06T09:27:05.192Z,71.61
2017-09-06T09:29:33.600Z,71.26
2017-09-06T09:32:01.973Z,69.91
2017-09-06T09:34:30.295Z,70.84
2017-09-06T09:36:58.687Z,69.62
2017-09-06T09:39:27.029Z,69.46
2017-09-06T09:41:55.381Z,69.93
2017-09-06T09:44:23.741Z,71.39
2017-09-06T09:46:52.081Z,71.15
2017-09-06T09:49:20.485Z,68.37
2017-09-06T09:51:48.814Z,69.04
2017-09-06T09:54:17.148Z,68.15
2017-09-06T09:56:45.480Z,67.23
2017-09-06T09:59:14.273Z,68.53
2017-09-06T10:01:42.604Z,67.78
2017-09-06T10:04:10.943Z,67.33
2017-09-06T10:06:39.295Z,66.53
2017-09-06T10:09:07.634Z,67.05
2017-09-06T10:11:35.986Z,66.51
2017-09-06T10:14:04.380Z,66.38
2017-09-06T10:16:32.748Z,63.69
2017-09-06T10:19:01.084Z,64.31
2017-09-06T10:21:29.434Z,64.00
2017-09-06T10:23:57.772Z,64.16
2017-09-06T10:26:26.884Z,64.02
2017-09-06T10:28:55.239Z,64.67
2017-09-06T10:31:23.554Z,63.24
2017-09-06T10:33:52.216Z,62.90
2017-09-06T10:36:20.562Z,63.75
2017-09-06T10:38:48.885Z,64.50
2017-09-06T10:41:17.237Z,65.31
2017-09-06T10:43:45.552Z,66.12
2017-09-06T10:46:13.894Z,65.91
2017-09-06T10:48:42.220Z,65.28
2017-09-06T10:51:10.675Z,64.52
2017-09-06T10:53:39.004Z,65.76
2017-09-06T10:56:07.343Z,64.87
2017-09-06T10:58:35.687Z,65.45
2017-09-06T11:01:04.016Z,64.62
2017-09-06T11:03:32.364Z,63.76
2017-09-06T11:06:00.695Z,63.44
2017-09-06T11:08:29.484Z,63.35
2017-09-06T11:10:57.822Z,61.89
2017-09-06T11:13:26.153Z,61.10
2017-09-06T11:15:54.523Z,60.31
2017-09-06T11:18:22.906Z,60.16
2017-09-06T11:20:51.256Z,60.63
2017-09-06T11:23:19.567Z,59.66
2017-09-06T11:25:48.381Z,61.11
2017-09-06T11:28:16.714Z,58.91
2017-09-06T11:30:45.045Z,59.50
2017-09-06T11:33:14.068Z,59.02
2017-09-06T11:35:42.397Z,59.05
2017-09-06T11:38:10.736Z,59.61
2017-09-06T11:40:39.058Z,58.66
2017-09-06T11:43:07.767Z,58.69
2017-09-06T11:45:36.115Z,58.62
2017-09-06T11:48:04.434Z,58.13
2017-09-06T11:50:32.758Z,58.09
2017-09-06T11:53:01.098Z,58.73
2017-09-06T11:55:29.473Z,59.00
2017-09-06T11:57:57.795Z,58.05
2017-09-06T12:00:26.528Z,57.11
2017-09-06T12:02:54.853Z,58.41
2017-09-06T12:05:23.174Z,55.47
2017-09-06T12:07:51.511Z,56.76
2017-09-06T12:10:19.852Z,53.92
2017-09-06T12:12:48.271Z,52.74
2017-09-06T12:15:16.662Z,53.75
2017-09-06T12:17:45.365Z,54.66
2017-09-06T12:20:13.696Z,55.57
2017-09-06T12:22:42.038Z,55.70
2017-09-06T12:25:10.407Z,55.59
2017-09-06T12:27:38.746Z,55.78
2017-09-06T12:30:07.107Z,54.80
2017-09-06T12:32:35.428Z,53.99
2017-09-06T12:35:03.789Z,55.99
2017-09-06T12:37:32.215Z,54.83
2017-09-06T12:40:00.557Z,55.13
2017-09-06T12:42:28.911Z,54.78
2017-09-06T12:44:57.264Z,54.98
2017-09-06T12:47:25.603Z,54.83
2017-09-06T12:49:53.933Z,55.22
2017-09-06T12:52:22.294Z,55.43
2017-09-06T12:54:50.655Z,56.06
2017-09-06T12:57:18.999Z,54.92
2017-09-06T12:59:47.344Z,55.12
2017-09-06T13:02:15.685Z,55.31
2017-09-06T13:04:44.048Z,55.79
2017-09-06T13:07:12.419Z,56.79
2017-09-06T13:09:40.747Z,54.64
2017-09-06T13:12:09.153Z,54.80
2017-09-06T13:14:37.474Z,55.20
2017-09-06T13:17:05.823Z,55.62
2017-09-06T13:19:34.146Z,54.41
2017-09-06T13:22:02.542Z,55.07
2017-09-06T13:24:30.872Z,55.98
2017-09-06T13:26:59.195Z,54.72
2017-09-06T13:29:27.550Z,55.09
2017-09-06T13:31:56.619Z,56.09
2017-09-06T13:34:24.979Z,55.48
2017-09-06T13:36:53.307Z,55.51
2017-09-06T13:39:21.675Z,55.60
2017-09-06T13:41:50.026Z,56.36
2017-09-06T13:44:18.351Z,55.89
2017-09-06T13:46:46.700Z,56.35
2017-09-06T13:49:15.031Z,55.09
2017-09-06T13:51:43.395Z,56.46
2017-09-06T13:54:11.848Z,54.61
2017-09-06T13:56:40.218Z,55.57
2017-09-06T13:59:08.556Z,53.63
2017-09-06T14:01:36.880Z,53.69
2017-09-06T14:04:05.241Z,54.12
2017-09-06T14:06:33.569Z,53.33
2017-09-06T14:09:01.934Z,53.66
2017-09-06T14:11:30.829Z,52.66
2017-09-06T14:13:59.383Z,52.11
2017-09-06T14:16:27.758Z,52.69
2017-09-06T14:18:56.096Z,53.02
2017-09-06T14:21:24.491Z,53.05
2017-09-06T14:23:52.967Z,50.88
2017-09-06T14:26:21.318Z,48.69
2017-09-06T14:28:49.658Z,48.11
2017-09-06T14:31:18.003Z,47.11
2017-09-06T14:33:46.357Z,47.33
2017-09-06T14:36:14.705Z,46.06
2017-09-06T14:38:43.068Z,46.16
2017-09-06T14:41:11.400Z,46.21
2017-09-06T14:43:39.733Z,48.00
2017-09-06T14:46:10.341Z,47.97
2017-09-06T14:48:38.789Z,48.20
2017-09-06T14:51:07.138Z,48.35
2017-09-06T14:53:35.939Z,49.16
2017-09-06T14:56:05.085Z,51.04
2017-09-06T14:58:33.414Z,50.30
2017-09-06T15:01:01.749Z,51.14
2017-09-06T15:03:30.107Z,50.00
2017-09-06T15:05:58.457Z,51.23
2017-09-06T15:08:26.819Z,50.65
2017-09-06T15:10:56.082Z,50.57
2017-09-06T15:13:24.509Z,51.94
2017-09-06T15:15:52.986Z,51.48
2017-09-06T15:18:21.316Z,52.14
2017-09-06T15:20:49.658Z,51.83
2017-09-06T15:23:18.094Z,50.94
2017-09-06T15:25:46.491Z,51.01
2017-09-06T15:28:14.807Z,51.50
2017-09-06T15:30:43.343Z,51.27
2017-09-06T15:33:11.741Z,51.47
2017-09-06T15:35:40.094Z,52.09
2017-09-06T15:38:08.431Z,52.25
2017-09-06T15:40:36.849Z,51.92
2017-09-06T15:43:05.505Z,52.75
2017-09-06T15:45:33.857Z,53.26
2017-09-06T15:48:02.190Z,53.79
2017-09-06T15:50:33.294Z,53.12
2017-09-06T15:53:01.650Z,53.69
2017-09-06T15:55:31.027Z,52.63
2017-09-06T15:57:59.363Z,52.98
2017-09-06T16:00:27.744Z,53.48
2017-09-06T16:02:57.077Z,53.60
2017-09-06T16:05:25.442Z,53.97
2017-09-06T16:07:53.803Z,54.47
2017-09-06T16:10:22.174Z,54.55
2017-09-06T16:12:51.418Z,55.34
2017-09-06T16:15:19.764Z,55.56
2017-09-06T16:17:48.521Z,55.79
2017-09-06T16:20:16.868Z,55.22
2017-09-06T16:22:45.206Z,55.36
2017-09-06T16:25:13.554Z,55.54
2017-09-06T16:27:41.873Z,56.96
2017-09-06T16:30:10.273Z,57.15
2017-09-06T16:32:38.633Z,57.86
2017-09-06T16:35:06.993Z,57.36
2017-09-06T16:37:35.401Z,58.67
2017-09-06T16:40:03.806Z,58.77
2017-09-06T16:42:32.178Z,59.20
2017-09-06T16:45:00.509Z,60.49
2017-09-06T16:47:28.866Z,61.39
2017-09-06T16:49:57.197Z,62.74
2017-09-06T16:52:26.053Z,63.47
2017-09-06T16:54:54.397Z,63.72
2017-09-06T16:57:22.732Z,63.54
2017-09-06T16:59:51.089Z,63.64
2017-09-06T17:02:19.405Z,63.73
2017-09-06T17:04:48.130Z,63.92
2017-09-06T17:07:16.477Z,63.94
2017-09-06T17:09:45.287Z,64.35
2017-09-06T17:12:13.626Z,64.45
2017-09-06T17:14:41.956Z,64.73
2017-09-06T17:17:10.357Z,64.79
2017-09-06T17:19:38.702Z,64.14
2017-09-06T17:22:07.042Z,64.35
2017-09-06T17:24:35.389Z,64.54
2017-09-06T17:27:04.554Z,66.03
2017-09-06T17:29:32.880Z,66.04
2017-09-06T17:32:01.225Z,65.98
2017-09-06T17:34:29.590Z,66.08
2017-09-06T17:36:59.217Z,67.07
2017-09-06T17:39:27.575Z,66.75
2017-09-06T17:41:56.085Z,66.57
2017-09-06T17:44:24.446Z,66.84
2017-09-06T17:46:52.830Z,66.98
2017-09-06T17:49:21.152Z,66.71
2017-09-06T17:51:50.464Z,66.91
2017-09-06T17:54:19.084Z,67.93
2017-09-06T17:56:47.713Z,67.79
2017-09-06T17:59:16.048Z,68.33
2017-09-06T18:01:44.395Z,69.25
2017-09-06T18:04:12.777Z,71.27
2017-09-06T18:06:41.129Z,73.68
2017-09-06T18:09:09.506Z,74.44
2017-09-06T18:11:37.866Z,76.12
2017-09-06T18:14:06.242Z,77.07
2017-09-06T18:16:34.669Z,77.22
2017-09-06T18:19:03.001Z,76.79
2017-09-06T18:21:31.362Z,76.04
2017-09-06T18:23:59.703Z,76.39
2017-09-06T18:26:28.073Z,77.17
2017-09-06T18:28:56.436Z,77.28
2017-09-06T18:31:24.795Z,77.25
2017-09-06T18:33:53.577Z,77.56
2017-09-06T18:36:24.324Z,78.21
2017-09-06T18:38:52.649Z,78.68
2017-09-06T18:41:21.026Z,78.13
2017-09-06T18:43:50.497Z,78.37
2017-09-06T18:46:18.820Z,78.61
2017-09-06T18:48:47.177Z,77.90
2017-09-06T18:51:15.548Z,77.96
2017-09-06T18:53:43.859Z,78.13
2017-09-06T18:56:12.635Z,78.51
2017-09-06T18:58:40.996Z,78.84
2017-09-06T19:01:09.360Z,78.14
2017-09-06T19:03:37.688Z,78.23
2017-09-06T19:06:06.551Z,78.18
2017-09-06T19:08:34.902Z,78.65
2017-09-06T19:11:03.243Z,79.33
2017-09-06T19:13:31.600Z,78.91
2017-09-06T19:15:59.943Z,78.86
2017-09-06T19:18:29.335Z,78.58
2017-09-06T19:20:57.676Z,79.67
2017-09-06T19:23:26.020Z,79.04
2017-09-06T19:25:54.438Z,79.82
2017-09-06T19:28:22.781Z,79.37
2017-09-06T19:30:51.920Z,79.52
2017-09-06T19:33:20.764Z,80.64
2017-09-06T19:35:49.099Z,80.35
2017-09-06T19:38:17.825Z,80.88
2017-09-06T19:40:46.180Z,81.08
2017-09-06T19:43:14.606Z,81.72
2017-09-06T19:45:43.040Z,81.96
2017-09-06T19:48:11.387Z,81.64
2017-09-06T19:50:39.725Z,81.37
2017-09-06T19:53:08.085Z,81.65
2017-09-06T19:55:36.429Z,80.73
2017-09-06T19:58:05.725Z,81.07
2017-09-06T20:00:34.086Z,81.21
2017-09-06T20:03:02.862Z,80.82
2017-09-06T20:05:31.251Z,81.91
2017-09-06T20:07:59.593Z,82.49
2017-09-06T20:10:27.972Z,82.71
2017-09-06T20:12:56.301Z,82.09
2017-09-06T20:15:24.647Z,82.49
2017-09-06T20:17:53.011Z,82.60
2017-09-06T20:20:21.358Z,82.47
2017-09-06T20:22:49.696Z,82.52
2017-09-06T20:25:18.026Z,81.66
2017-09-06T20:27:46.347Z,81.70
2017-09-06T20:30:14.699Z,81.98
2017-09-06T20:32:43.035Z,82.42
2017-09-06T20:35:11.420Z,82.44
2017-09-06T20:37:39.744Z,82.75
2017-09-06T20:40:08.346Z,82.75
2017-09-06T20:42:36.683Z,82.78
2017-09-06T20:45:05.028Z,83.33
2017-09-06T20:47:33.369Z,82.79
2017-09-06T20:50:01.708Z,82.73
2017-09-06T20:52:30.079Z,82.59
2017-09-06T20:54:58.411Z,83.06
2017-09-06T20:57:27.017Z,82.91
2017-09-06T20:59:55.331Z,83.30
2017-09-06T21:02:23.641Z,83.51
2017-09-06T21:04:52.004Z,83.86
2017-09-06T21:07:20.335Z,83.69
2017-09-06T21:09:48.704Z,83.50
2017-09-06T21:12:17.068Z,83.20
2017-09-06T21:14:45.436Z,83.77
2017-09-06T21:17:13.781Z,83.73
2017-09-06T21:19:42.123Z,82.86
2017-09-06T21:22:10.488Z,83.77
2017-09-06T21:24:38.822Z,83.45
2017-09-06T21:27:07.165Z,83.72
2017-09-06T21:29:35.503Z,83.49
2017-09-06T21:32:03.868Z,83.83
2017-09-06T21:34:32.230Z,83.97
2017-09-06T21:37:00.563Z,83.51
2017-09-06T21:39:28.912Z,83.41
2017-09-06T21:41:57.255Z,84.04
2017-09-06T21:44:25.608Z,83.56
2017-09-06T21:46:53.934Z,83.68
2017-09-06T21:49:22.541Z,84.17
2017-09-06T21:51:50.893Z,84.12
2017-09-06T21:54:19.222Z,83.85
2017-09-06T21:56:47.578Z,83.97
2017-09-06T21:59:15.934Z,84.62
2017-09-06T22:01:44.276Z,84.76
2017-09-06T22:04:12.608Z,84.95
2017-09-06T22:06:40.954Z,84.89
2017-09-06T22:09:09.300Z,84.60
2017-09-06T22:11:37.631Z,84.13
2017-09-06T22:14:06.009Z,84.07
2017-09-06T22:16:34.361Z,83.74
2017-09-06T22:19:02.712Z,83.62
2017-09-06T22:21:31.041Z,83.61
2017-09-06T22:23:59.390Z,84.07
2017-09-06T22:26:27.738Z,84.03
2017-09-06T22:28:56.081Z,83.78
2017-09-06T22:31:24.446Z,83.87
2017-09-06T22:33:52.772Z,84.08
2017-09-06T22:36:21.131Z,84.27
2017-09-06T22:38:49.441Z,84.42
2017-09-06T22:41:18.693Z,84.01
2017-09-06T22:43:47.025Z,84.25
2017-09-06T22:46:15.379Z,84.26
2017-09-06T22:48:44.066Z,84.36
2017-09-06T22:51:12.471Z,84.10
2017-09-06T22:53:40.834Z,84.30
2017-09-06T22:56:09.195Z,84.13
2017-09-06T22:58:37.521Z,84.51
2017-09-06T23:01:05.855Z,84.47
2017-09-06T23:03:34.176Z,84.03
2017-09-06T23:06:02.511Z,84.34
2017-09-06T23:08:30.836Z,84.33
2017-09-06T23:10:59.451Z,84.53
2017-09-06T23:13:27.787Z,84.33
2017-09-06T23:15:56.116Z,84.41
2017-09-06T23:18:24.453Z,84.67
2017-09-06T23:20:52.782Z,84.85
2017-09-06T23:23:21.128Z,84.42
2017-09-06T23:25:49.466Z,84.73
2017-09-06T23:28:17.822Z,84.63
2017-09-06T23:30:46.163Z,84.24
2017-09-06T23:33:14.530Z,84.55
2017-09-06T23:35:42.918Z,84.07
2017-09-06T23:38:11.830Z,83.95
2017-09-06T23:40:40.724Z,84.35
2017-09-06T23:43:09.534Z,84.80
2017-09-06T23:45:38.469Z,84.92
2017-09-06T23:48:07.463Z,85.01
2017-09-06T23:50:36.706Z,84.70
2017-09-06T23:53:05.614Z,83.93
2017-09-06T23:55:33.940Z,83.32
2017-09-06T23:58:02.302Z,83.18
